createdAt,value
2023-05-12T00:00:17.051Z,16.26
2023-05-12T00:01:16.931Z,16.35
2023-05-12T00:02:16.973Z,16.15
2023-05-12T00:03:16.968Z,16.26
2023-05-12T00:04:16.910Z,16.35
2023-05-12T00:05:16.913Z,16.38
2023-05-12T00:06:16.897Z,16.41
2023-05-12T00:07:16.866Z,16.45
2023-05-12T00:08:16.931Z,16.48
2023-05-12T00:09:16.866Z,16.23
2023-05-12T00:10:16.870Z,16.07
2023-05-12T00:11:16.842Z,16.16
2023-05-12T00:12:16.844Z,16.37
2023-05-12T00:13:16.834Z,16.15
2023-05-12T00:14:17.857Z,16.20
2023-05-12T00:15:16.812Z,16.26
2023-05-12T00:16:16.826Z,16.26
2023-05-12T00:17:16.828Z,16.27
2023-05-12T00:18:16.789Z,16.18
2023-05-12T00:19:17.309Z,15.85
2023-05-12T00:20:16.933Z,15.64
2023-05-12T00:21:16.797Z,15.45
2023-05-12T00:22:16.762Z,15.27
2023-05-12T00:23:16.754Z,15.01
2023-05-12T00:24:16.758Z,14.83
2023-05-12T00:25:16.779Z,14.83
2023-05-12T00:26:16.751Z,14.68
2023-05-12T00:27:16.754Z,14.81
2023-05-12T00:28:16.726Z,14.64
2023-05-12T00:29:17.712Z,14.81
2023-05-12T00:30:16.786Z,14.93
2023-05-12T00:31:16.790Z,15.08
2023-05-12T00:32:16.698Z,15.31
2023-05-12T00:33:16.692Z,15.36
2023-05-12T00:34:16.723Z,15.45
2023-05-12T00:35:16.692Z,15.43
2023-05-12T00:36:16.749Z,15.43
2023-05-12T00:37:16.685Z,15.42
2023-05-12T00:38:16.656Z,15.51
2023-05-12T00:39:16.654Z,15.43
2023-05-12T00:40:16.754Z,15.54
2023-05-12T00:41:16.642Z,15.56
2023-05-12T00:42:16.672Z,15.61
2023-05-12T00:43:16.634Z,15.49
2023-05-12T00:44:16.662Z,15.43
2023-05-12T00:45:16.624Z,15.49
2023-05-12T00:46:16.626Z,15.57
2023-05-12T00:47:16.656Z,15.64
2023-05-12T00:48:16.602Z,15.63
2023-05-12T00:49:16.697Z,15.56
2023-05-12T00:50:16.628Z,15.63
2023-05-12T00:51:16.587Z,15.51
2023-05-12T00:52:16.596Z,15.60
2023-05-12T00:53:16.573Z,15.48
2023-05-12T00:54:16.592Z,15.23
2023-05-12T00:55:16.607Z,15.11
2023-05-12T00:56:16.572Z,15.19
2023-05-12T00:57:16.536Z,15.20
2023-05-12T00:58:16.607Z,15.27
2023-05-12T00:59:16.572Z,15.13
2023-05-12T01:00:16.549Z,15.02
2023-05-12T01:01:16.650Z,15.06
2023-05-12T01:02:16.558Z,15.03
2023-05-12T01:03:16.568Z,14.88
2023-05-12T01:04:16.528Z,14.83
2023-05-12T01:05:16.496Z,14.75
2023-05-12T01:06:16.518Z,14.91
2023-05-12T01:07:16.499Z,14.81
2023-05-12T01:08:16.471Z,14.74
2023-05-12T01:09:16.500Z,14.87
2023-05-12T01:10:16.517Z,15.09
2023-05-12T01:11:16.480Z,15.21
2023-05-12T01:12:16.448Z,15.26
2023-05-12T01:13:16.472Z,15.20
2023-05-12T01:14:16.460Z,15.24
2023-05-12T01:15:16.433Z,15.48
2023-05-12T01:16:16.457Z,15.39
2023-05-12T01:17:16.453Z,15.15
2023-05-12T01:18:16.439Z,15.15
2023-05-12T01:19:16.540Z,15.24
2023-05-12T01:20:16.439Z,15.26
2023-05-12T01:21:16.400Z,15.35
2023-05-12T01:22:16.384Z,15.41
2023-05-12T01:23:16.377Z,15.51
2023-05-12T01:24:16.390Z,15.54
2023-05-12T01:25:16.422Z,15.59
2023-05-12T01:26:16.353Z,15.46
2023-05-12T01:27:16.355Z,15.54
2023-05-12T01:28:16.341Z,15.64
2023-05-12T01:29:16.339Z,15.66
2023-05-12T01:30:16.376Z,15.61
2023-05-12T01:31:16.792Z,15.63
2023-05-12T01:32:16.327Z,15.56
2023-05-12T01:33:16.299Z,15.46
2023-05-12T01:34:16.369Z,15.56
2023-05-12T01:35:16.305Z,15.59
2023-05-12T01:36:16.366Z,15.56
2023-05-12T01:37:16.302Z,15.49
2023-05-12T01:38:16.319Z,15.67
2023-05-12T01:39:16.255Z,15.61
2023-05-12T01:40:16.303Z,15.57
2023-05-12T01:41:16.274Z,15.60
2023-05-12T01:42:16.244Z,15.59
2023-05-12T01:43:16.261Z,15.60
2023-05-12T01:44:16.283Z,15.51
2023-05-12T01:45:16.241Z,15.43
2023-05-12T01:46:16.316Z,15.45
2023-05-12T01:47:16.248Z,15.48
2023-05-12T01:48:16.240Z,15.41
2023-05-12T01:49:16.187Z,15.35
2023-05-12T01:50:16.208Z,15.26
2023-05-12T01:51:16.184Z,15.30
2023-05-12T01:52:16.227Z,15.24
2023-05-12T01:53:16.181Z,15.36
2023-05-12T01:54:16.187Z,15.36
2023-05-12T01:55:16.168Z,15.51
2023-05-12T01:56:16.165Z,15.51
2023-05-12T01:57:16.169Z,15.60
2023-05-12T01:58:16.147Z,15.54
2023-05-12T01:59:16.158Z,15.56
2023-05-12T02:00:16.122Z,15.54
2023-05-12T02:01:16.183Z,15.46
2023-05-12T02:02:16.248Z,15.66
2023-05-12T02:03:16.149Z,15.66
2023-05-12T02:04:16.376Z,15.68
2023-05-12T02:05:16.091Z,15.75
2023-05-12T02:06:16.142Z,15.75
2023-05-12T02:07:16.079Z,15.72
2023-05-12T02:08:16.176Z,15.76
2023-05-12T02:09:16.100Z,15.81
2023-05-12T02:10:16.102Z,15.82
2023-05-12T02:11:16.060Z,15.81
2023-05-12T02:12:16.073Z,15.64
2023-05-12T02:13:16.147Z,15.78
2023-05-12T02:14:16.026Z,15.92
2023-05-12T02:15:16.034Z,15.94
2023-05-12T02:16:16.016Z,15.97
2023-05-12T02:17:16.080Z,15.99
2023-05-12T02:18:16.057Z,16.06
2023-05-12T02:19:15.993Z,16.04
2023-05-12T02:20:15.988Z,16.07
2023-05-12T02:21:16.042Z,16.06
2023-05-12T02:22:15.996Z,16.01
2023-05-12T02:23:16.010Z,15.99
2023-05-12T02:24:16.005Z,15.89
2023-05-12T02:25:16.097Z,15.92
2023-05-12T02:26:16.724Z,15.78
2023-05-12T02:27:15.958Z,15.63
2023-05-12T02:28:15.973Z,15.30
2023-05-12T02:29:15.927Z,15.21
2023-05-12T02:30:15.948Z,15.15
2023-05-12T02:31:15.929Z,15.08
2023-05-12T02:32:15.935Z,15.24
2023-05-12T02:33:15.924Z,15.38
2023-05-12T02:34:15.901Z,15.56
2023-05-12T02:35:15.911Z,15.42
2023-05-12T02:36:15.909Z,15.21
2023-05-12T02:37:15.944Z,15.19
2023-05-12T02:38:15.899Z,15.12
2023-05-12T02:39:15.907Z,15.09
2023-05-12T02:40:15.870Z,15.06
2023-05-12T02:41:15.828Z,15.06
2023-05-12T02:42:15.854Z,15.08
2023-05-12T02:43:15.831Z,15.13
2023-05-12T02:44:15.880Z,15.26
2023-05-12T02:45:15.898Z,15.21
2023-05-12T02:46:16.926Z,15.13
2023-05-12T02:47:15.837Z,15.19
2023-05-12T02:48:15.822Z,15.13
2023-05-12T02:49:15.808Z,14.99
2023-05-12T02:50:15.798Z,14.90
2023-05-12T02:51:15.802Z,14.86
2023-05-12T02:52:15.774Z,14.83
2023-05-12T02:53:15.803Z,14.78
2023-05-12T02:54:16.789Z,14.61
2023-05-12T02:55:15.770Z,14.72
2023-05-12T02:56:15.776Z,14.72
2023-05-12T02:57:15.732Z,14.91
2023-05-12T02:58:15.780Z,14.72
2023-05-12T02:59:15.740Z,14.67
2023-05-12T03:00:15.739Z,14.56
2023-05-12T03:01:15.752Z,14.64
2023-05-12T03:02:15.760Z,14.56
2023-05-12T03:03:15.915Z,14.53
2023-05-12T03:04:15.727Z,14.72
2023-05-12T03:05:15.721Z,15.01
2023-05-12T03:06:15.696Z,14.86
2023-05-12T03:07:15.727Z,14.90
2023-05-12T03:08:15.683Z,14.78
2023-05-12T03:09:15.699Z,14.86
2023-05-12T03:10:15.667Z,14.90
2023-05-12T03:11:15.663Z,15.08
2023-05-12T03:12:15.664Z,15.01
2023-05-12T03:13:15.640Z,15.09
2023-05-12T03:14:15.640Z,15.05
2023-05-12T03:15:15.627Z,15.06
2023-05-12T03:16:16.474Z,15.02
2023-05-12T03:17:15.755Z,14.91
2023-05-12T03:18:15.595Z,14.99
2023-05-12T03:19:15.620Z,15.13
2023-05-12T03:20:15.576Z,14.93
2023-05-12T03:21:15.590Z,14.80
2023-05-12T03:22:15.647Z,14.93
2023-05-12T03:23:15.580Z,15.08
2023-05-12T03:24:15.572Z,15.05
2023-05-12T03:25:15.559Z,15.15
2023-05-12T03:26:15.594Z,15.09
2023-05-12T03:27:15.650Z,15.13
2023-05-12T03:28:15.534Z,15.11
2023-05-12T03:29:15.558Z,15.13
2023-05-12T03:30:15.508Z,15.21
2023-05-12T03:31:15.572Z,15.21
2023-05-12T03:32:15.520Z,15.05
2023-05-12T03:33:15.552Z,15.13
2023-05-12T03:34:15.493Z,15.17
2023-05-12T03:35:15.503Z,15.21
2023-05-12T03:36:15.496Z,15.28
2023-05-12T03:37:15.528Z,15.35
2023-05-12T03:38:15.520Z,15.48
2023-05-12T03:39:15.475Z,15.30
2023-05-12T03:40:15.512Z,15.35
2023-05-12T03:41:15.478Z,15.35
2023-05-12T03:42:15.486Z,15.43
2023-05-12T03:43:15.491Z,15.48
2023-05-12T03:44:15.496Z,15.46
2023-05-12T03:45:15.484Z,15.38
2023-05-12T03:46:15.577Z,15.30
2023-05-12T03:47:15.438Z,15.19
2023-05-12T03:48:15.478Z,15.23
2023-05-12T03:49:15.410Z,15.19
2023-05-12T03:50:15.470Z,15.24
2023-05-12T03:51:15.404Z,15.20
2023-05-12T03:52:15.392Z,15.24
2023-05-12T03:53:15.414Z,15.31
2023-05-12T03:54:15.366Z,15.39
2023-05-12T03:55:15.387Z,15.31
2023-05-12T03:56:15.353Z,15.39
2023-05-12T03:57:15.350Z,15.30
2023-05-12T03:58:15.369Z,15.45
2023-05-12T03:59:15.328Z,15.56
2023-05-12T04:00:15.342Z,15.56
2023-05-12T04:01:49.027Z,15.51
2023-05-12T04:02:15.462Z,15.67
2023-05-12T04:03:15.470Z,15.68
2023-05-12T04:04:48.760Z,15.81
2023-05-12T04:05:47.729Z,15.68
2023-05-12T04:06:47.715Z,15.74
2023-05-12T04:07:47.758Z,15.75
2023-05-12T04:08:48.708Z,15.68
2023-05-12T04:09:47.696Z,15.66
2023-05-12T04:10:48.732Z,15.51
2023-05-12T04:11:15.266Z,15.31
2023-05-12T04:12:48.683Z,15.49
2023-05-12T04:13:15.215Z,15.59
2023-05-12T04:14:47.740Z,15.42
2023-05-12T04:15:48.679Z,15.20
2023-05-12T04:16:15.230Z,15.21
2023-05-12T04:17:48.704Z,15.15
2023-05-12T04:18:15.977Z,15.21
2023-05-12T04:19:15.172Z,15.26
2023-05-12T04:20:15.205Z,15.28
2023-05-12T04:21:15.211Z,15.38
2023-05-12T04:22:15.191Z,15.36
2023-05-12T04:23:15.182Z,15.45
2023-05-12T04:24:15.177Z,15.59
2023-05-12T04:25:15.169Z,15.66
2023-05-12T04:26:15.153Z,15.68
2023-05-12T04:27:15.175Z,15.72
2023-05-12T04:28:15.175Z,15.85
2023-05-12T04:29:15.112Z,15.76
2023-05-12T04:30:15.109Z,15.89
2023-05-12T04:31:15.126Z,15.96
2023-05-12T04:32:15.182Z,16.18
2023-05-12T04:33:15.126Z,16.11
2023-05-12T04:34:15.146Z,16.06
2023-05-12T04:35:15.180Z,16.11
2023-05-12T04:36:15.068Z,15.97
2023-05-12T04:37:15.073Z,15.94
2023-05-12T04:38:15.060Z,15.99
2023-05-12T04:39:15.962Z,16.03
2023-05-12T04:40:15.045Z,16.07
2023-05-12T04:41:15.075Z,16.15
2023-05-12T04:42:15.040Z,16.34
2023-05-12T04:44:16.162Z,16.50
2023-05-12T04:45:15.028Z,16.50
2023-05-12T04:46:15.059Z,16.56
2023-05-12T04:47:15.116Z,16.60
2023-05-12T04:48:14.986Z,16.80
2023-05-12T04:49:14.995Z,16.77
2023-05-12T04:50:14.998Z,16.90
2023-05-12T04:51:15.172Z,17.00
2023-05-12T04:52:14.979Z,17.14
2023-05-12T04:53:14.939Z,17.11
2023-05-12T04:54:14.992Z,16.89
2023-05-12T04:55:14.984Z,16.92
2023-05-12T04:56:14.945Z,16.96
2023-05-12T04:57:14.989Z,17.00
2023-05-12T04:58:17.401Z,17.08
2023-05-12T04:59:14.915Z,17.07
2023-05-12T05:00:14.930Z,16.92
2023-05-12T05:01:15.004Z,16.67
2023-05-12T05:02:14.970Z,16.86
2023-05-12T05:03:14.949Z,16.74
2023-05-12T05:04:14.916Z,16.95
2023-05-12T05:05:14.873Z,16.98
2023-05-12T05:06:14.961Z,16.89
2023-05-12T05:07:14.917Z,16.59
2023-05-12T05:08:15.002Z,16.80
2023-05-12T05:09:14.853Z,17.08
2023-05-12T05:10:14.935Z,17.07
2023-05-12T05:11:14.953Z,17.18
2023-05-12T05:12:14.828Z,17.26
2023-05-12T05:13:14.837Z,17.50
2023-05-12T05:14:14.809Z,17.47
2023-05-12T05:15:14.812Z,17.46
2023-05-12T05:16:14.944Z,17.46
2023-05-12T05:17:14.807Z,17.54
2023-05-12T05:18:14.849Z,17.51
2023-05-12T05:19:20.905Z,17.64
2023-05-12T05:20:16.912Z,17.50
2023-05-12T05:21:14.845Z,17.17
2023-05-12T05:22:14.808Z,16.89
2023-05-12T05:23:14.773Z,16.99
2023-05-12T05:24:15.155Z,17.08
2023-05-12T05:25:14.780Z,17.22
2023-05-12T05:26:14.755Z,16.88
2023-05-12T05:27:15.490Z,17.11
2023-05-12T05:28:14.771Z,17.17
2023-05-12T05:29:14.754Z,17.32
2023-05-12T05:30:14.792Z,17.40
2023-05-12T05:31:14.767Z,17.38
2023-05-12T05:32:14.739Z,17.38
2023-05-12T05:33:14.747Z,17.28
2023-05-12T05:34:14.748Z,17.32
2023-05-12T05:35:14.722Z,17.35
2023-05-12T05:36:14.703Z,17.25
2023-05-12T05:37:14.711Z,17.35
2023-05-12T05:38:14.730Z,17.53
2023-05-12T05:39:14.696Z,17.78
2023-05-12T05:40:14.791Z,17.70
2023-05-12T05:41:14.672Z,17.79
2023-05-12T05:42:14.676Z,17.99
2023-05-12T05:43:14.674Z,17.81
2023-05-12T05:44:14.654Z,17.81
2023-05-12T05:45:14.675Z,17.73
2023-05-12T05:46:14.724Z,17.55
2023-05-12T05:47:14.766Z,17.69
2023-05-12T05:48:14.632Z,17.64
2023-05-12T05:49:14.666Z,17.87
2023-05-12T05:50:14.619Z,18.02
2023-05-12T05:51:14.620Z,18.10
2023-05-12T05:52:14.620Z,18.10
2023-05-12T05:53:14.631Z,18.10
2023-05-12T05:54:14.641Z,18.27
2023-05-12T05:55:14.601Z,18.50
2023-05-12T05:56:14.589Z,18.58
2023-05-12T05:57:14.583Z,18.64
2023-05-12T05:58:14.600Z,18.64
2023-05-12T05:59:14.554Z,18.61
2023-05-12T06:00:14.536Z,18.73
2023-05-12T06:01:14.594Z,18.82
2023-05-12T06:02:15.894Z,18.36
2023-05-12T06:03:15.588Z,18.19
2023-05-12T06:04:14.544Z,18.10
2023-05-12T06:05:14.645Z,18.27
2023-05-12T06:06:14.542Z,18.03
2023-05-12T06:07:14.519Z,17.82
2023-05-12T06:08:14.509Z,17.95
2023-05-12T06:09:14.532Z,17.92
2023-05-12T06:10:14.526Z,17.64
2023-05-12T06:11:15.976Z,17.70
2023-05-12T06:12:14.535Z,17.87
2023-05-12T06:13:14.480Z,18.12
2023-05-12T06:14:14.484Z,17.95
2023-05-12T06:15:14.469Z,17.87
2023-05-12T06:16:14.506Z,18.15
2023-05-12T06:17:14.472Z,17.91
2023-05-12T06:18:14.473Z,17.87
2023-05-12T06:19:14.492Z,17.71
2023-05-12T06:20:14.421Z,17.69
2023-05-12T06:21:14.421Z,17.48
2023-05-12T06:22:14.542Z,17.48
2023-05-12T06:23:14.408Z,17.53
2023-05-12T06:24:14.440Z,17.97
2023-05-12T06:25:14.400Z,17.88
2023-05-12T06:26:14.389Z,17.76
2023-05-12T06:27:14.395Z,17.71
2023-05-12T06:28:14.379Z,17.89
2023-05-12T06:29:14.383Z,18.29
2023-05-12T06:30:15.935Z,18.17
2023-05-12T06:31:15.388Z,18.06
2023-05-12T06:32:14.487Z,18.21
2023-05-12T06:33:14.372Z,18.27
2023-05-12T06:34:14.358Z,18.27
2023-05-12T06:35:14.334Z,18.25
2023-05-12T06:36:14.384Z,17.89
2023-05-12T06:37:14.344Z,17.67
2023-05-12T06:38:14.384Z,17.67
2023-05-12T06:39:14.319Z,17.91
2023-05-12T06:40:14.330Z,17.66
2023-05-12T06:41:15.363Z,17.88
2023-05-12T06:42:14.894Z,17.82
2023-05-12T06:43:14.385Z,17.71
2023-05-12T06:44:14.305Z,17.95
2023-05-12T06:45:14.309Z,18.34
2023-05-12T06:46:14.342Z,18.58
2023-05-12T06:47:14.307Z,18.87
2023-05-12T06:48:14.277Z,18.43
2023-05-12T06:49:14.280Z,18.17
2023-05-12T06:50:14.260Z,18.04
2023-05-12T06:51:14.286Z,18.07
2023-05-12T06:52:14.293Z,18.15
2023-05-12T06:53:14.254Z,17.91
2023-05-12T06:54:14.227Z,17.88
2023-05-12T06:55:14.231Z,18.02
2023-05-12T06:56:14.239Z,17.99
2023-05-12T06:57:14.238Z,18.09
2023-05-12T06:58:14.226Z,17.99
2023-05-12T06:59:14.239Z,18.03
2023-05-12T07:00:14.216Z,18.00
2023-05-12T07:01:14.209Z,17.91
2023-05-12T07:02:14.184Z,17.85
2023-05-12T07:03:14.284Z,17.82
2023-05-12T07:04:14.221Z,17.82
2023-05-12T07:05:14.162Z,17.89
2023-05-12T07:06:14.181Z,17.99
2023-05-12T07:07:14.167Z,18.18
2023-05-12T07:08:14.158Z,18.09
2023-05-12T07:09:14.169Z,17.82
2023-05-12T07:10:14.293Z,17.74
2023-05-12T07:11:14.126Z,17.54
2023-05-12T07:12:14.112Z,17.59
2023-05-12T07:13:14.162Z,17.79
2023-05-12T07:14:14.127Z,17.84
2023-05-12T07:15:14.095Z,17.79
2023-05-12T07:16:14.162Z,17.95
2023-05-12T07:17:14.092Z,18.34
2023-05-12T07:18:14.082Z,18.18
2023-05-12T07:19:14.144Z,18.09
2023-05-12T07:20:14.088Z,18.00
2023-05-12T07:21:14.120Z,18.17
2023-05-12T07:22:14.540Z,18.64
2023-05-12T07:23:14.099Z,18.67
2023-05-12T07:24:14.054Z,18.64
2023-05-12T07:25:14.087Z,18.86
2023-05-12T07:26:14.100Z,19.28
2023-05-12T07:27:14.054Z,19.25
2023-05-12T07:28:14.044Z,19.88
2023-05-12T07:29:14.209Z,20.16
2023-05-12T07:30:14.034Z,20.68
2023-05-12T07:31:14.056Z,20.89
2023-05-12T07:32:14.029Z,20.51
2023-05-12T07:33:14.011Z,19.97
2023-05-12T07:34:13.978Z,20.05
2023-05-12T07:35:14.958Z,20.20
2023-05-12T07:36:13.961Z,20.64
2023-05-12T07:37:14.001Z,20.62
2023-05-12T07:38:13.951Z,20.62
2023-05-12T07:39:14.011Z,21.02
2023-05-12T07:40:13.984Z,21.41
2023-05-12T07:41:13.946Z,21.60
2023-05-12T07:42:13.976Z,21.32
2023-05-12T07:43:13.973Z,21.54
2023-05-12T07:44:13.914Z,21.90
2023-05-12T07:45:13.925Z,22.44
2023-05-12T07:46:13.888Z,23.11
2023-05-12T07:47:13.929Z,23.50
2023-05-12T07:48:13.949Z,24.02
2023-05-12T07:49:13.894Z,23.90
2023-05-12T07:50:13.903Z,23.17
2023-05-12T07:51:13.888Z,22.46
2023-05-12T07:52:13.960Z,21.66
2023-05-12T07:53:13.886Z,21.45
2023-05-12T07:54:13.846Z,21.30
2023-05-12T07:55:13.858Z,21.54
2023-05-12T07:56:13.866Z,22.04
2023-05-12T07:57:13.861Z,21.60
2023-05-12T07:58:13.971Z,21.50
2023-05-12T07:59:13.809Z,21.50
2023-05-12T08:00:13.854Z,21.71
2023-05-12T08:01:13.839Z,21.82
2023-05-12T08:02:13.826Z,22.06
2023-05-12T08:03:13.869Z,22.47
2023-05-12T08:04:13.874Z,22.69
2023-05-12T08:05:13.837Z,23.12
2023-05-12T08:06:13.790Z,23.43
2023-05-12T08:07:13.776Z,23.43
2023-05-12T08:08:13.813Z,23.58
2023-05-12T08:09:13.759Z,23.12
2023-05-12T08:10:13.843Z,22.22
2023-05-12T08:11:13.755Z,21.44
2023-05-12T08:12:13.748Z,21.54
2023-05-12T08:13:13.736Z,21.09
2023-05-12T08:14:13.755Z,21.04
2023-05-12T08:15:13.720Z,20.95
2023-05-12T08:16:13.727Z,20.87
2023-05-12T08:17:13.793Z,20.99
2023-05-12T08:18:13.769Z,20.56
2023-05-12T08:19:13.821Z,21.29
2023-05-12T08:20:13.706Z,21.13
2023-05-12T08:21:13.692Z,21.14
2023-05-12T08:22:13.709Z,21.21
2023-05-12T08:23:13.680Z,20.99
2023-05-12T08:24:13.713Z,21.17
2023-05-12T08:25:15.429Z,20.91
2023-05-12T08:26:13.650Z,20.84
2023-05-12T08:27:13.656Z,20.93
2023-05-12T08:28:13.642Z,20.47
2023-05-12T08:29:13.827Z,20.66
2023-05-12T08:30:13.724Z,20.62
2023-05-12T08:31:14.705Z,21.11
2023-05-12T08:32:13.629Z,20.74
2023-05-12T08:33:13.609Z,20.93
2023-05-12T08:34:13.641Z,21.29
2023-05-12T08:35:13.696Z,21.30
2023-05-12T08:36:13.599Z,21.24
2023-05-12T08:37:13.602Z,21.41
2023-05-12T08:38:13.600Z,20.83
2023-05-12T08:39:13.588Z,20.61
2023-05-12T08:40:13.590Z,20.79
2023-05-12T08:41:13.634Z,20.83
2023-05-12T08:42:13.572Z,21.11
2023-05-12T08:43:13.552Z,21.02
2023-05-12T08:44:13.562Z,21.78
2023-05-12T08:45:13.618Z,22.06
2023-05-12T08:46:13.821Z,22.35
2023-05-12T08:47:13.534Z,22.84
2023-05-12T08:48:13.609Z,23.11
2023-05-12T08:49:13.512Z,23.19
2023-05-12T08:50:13.534Z,23.90
2023-05-12T08:51:13.529Z,23.64
2023-05-12T08:52:13.530Z,23.49
2023-05-12T08:53:13.557Z,22.86
2023-05-12T08:54:13.498Z,22.28
2023-05-12T08:55:13.560Z,22.20
2023-05-12T08:57:14.521Z,22.90
2023-05-12T08:58:13.559Z,22.94
2023-05-12T08:59:13.459Z,22.75
2023-05-12T09:00:13.457Z,22.87
2023-05-12T09:01:13.578Z,22.97
2023-05-12T09:02:13.722Z,22.56
2023-05-12T09:03:13.491Z,22.59
2023-05-12T09:04:13.498Z,22.47
2023-05-12T09:05:13.472Z,23.15
2023-05-12T09:06:13.470Z,23.35
2023-05-12T09:07:13.428Z,22.86
2023-05-12T09:08:13.437Z,22.84
2023-05-12T09:09:13.417Z,22.60
2023-05-12T09:10:22.477Z,22.80
2023-05-12T09:11:15.444Z,22.97
2023-05-12T09:12:14.955Z,23.72
2023-05-12T09:13:13.416Z,24.29
2023-05-12T09:14:13.391Z,24.95
2023-05-12T09:15:13.386Z,25.42
2023-05-12T09:16:13.418Z,25.24
2023-05-12T09:17:13.363Z,24.94
2023-05-12T09:18:13.384Z,24.90
2023-05-12T09:19:13.403Z,25.37
2023-05-12T09:20:27.919Z,25.56
2023-05-12T09:21:15.389Z,25.42
2023-05-12T09:22:13.376Z,25.99
2023-05-12T09:23:13.345Z,25.30
2023-05-12T09:24:13.472Z,25.13
2023-05-12T09:25:14.716Z,24.75
2023-05-12T09:26:14.329Z,25.12
2023-05-12T09:27:13.308Z,25.25
2023-05-12T09:28:13.410Z,25.52
2023-05-12T09:29:20.787Z,25.22
2023-05-12T09:30:15.325Z,24.92
2023-05-12T09:31:14.676Z,24.60
2023-05-12T09:32:14.288Z,24.50
2023-05-12T09:33:13.355Z,25.53
2023-05-12T09:34:13.262Z,25.82
2023-05-12T09:35:14.298Z,27.19
2023-05-12T09:36:13.281Z,27.80
2023-05-12T09:37:15.177Z,28.06
2023-05-12T09:38:14.248Z,28.33
2023-05-12T09:39:13.251Z,27.76
2023-05-12T09:40:13.238Z,27.80
2023-05-12T09:41:13.265Z,27.09
2023-05-12T09:42:13.254Z,26.99
2023-05-12T09:43:15.351Z,27.01
2023-05-12T09:44:14.216Z,27.50
2023-05-12T09:45:13.241Z,28.16
2023-05-12T09:46:13.252Z,27.99
2023-05-12T09:47:13.191Z,26.76
2023-05-12T09:48:13.213Z,27.77
2023-05-12T09:49:14.251Z,28.23
2023-05-12T09:50:13.445Z,26.95
2023-05-12T09:51:13.207Z,26.55
2023-05-12T09:52:13.170Z,27.19
2023-05-12T09:53:13.165Z,27.26
2023-05-12T09:54:13.165Z,25.90
2023-05-12T09:55:13.165Z,24.91
2023-05-12T09:56:13.145Z,24.69
2023-05-12T09:57:13.187Z,25.65
2023-05-12T09:58:13.194Z,27.11
2023-05-12T09:59:13.115Z,28.60
2023-05-12T10:00:21.501Z,28.80
2023-05-12T10:01:22.643Z,29.84
2023-05-12T10:02:15.179Z,30.08
2023-05-12T10:03:13.188Z,28.66
2023-05-12T10:04:13.109Z,27.64
2023-05-12T10:05:13.186Z,28.88
2023-05-12T10:06:13.186Z,28.10
2023-05-12T10:07:13.112Z,27.79
2023-05-12T10:08:13.073Z,27.89
2023-05-12T10:09:13.063Z,28.28
2023-05-12T10:10:13.043Z,29.16
2023-05-12T10:11:13.045Z,30.19
2023-05-12T10:12:13.058Z,29.81
2023-05-12T10:13:13.103Z,29.78
2023-05-12T10:14:13.127Z,30.81
2023-05-12T10:15:13.032Z,30.53
2023-05-12T10:16:13.136Z,29.55
2023-05-12T10:17:13.081Z,28.69
2023-05-12T10:18:13.036Z,27.71
2023-05-12T10:19:13.024Z,27.46
2023-05-12T10:20:13.006Z,27.05
2023-05-12T10:21:13.017Z,26.50
2023-05-12T10:22:13.065Z,25.90
2023-05-12T10:23:12.974Z,25.89
2023-05-12T10:24:12.989Z,25.68
2023-05-12T10:25:12.978Z,25.59
2023-05-12T10:26:12.945Z,25.61
2023-05-12T10:27:12.964Z,25.83
2023-05-12T10:28:12.941Z,25.97
2023-05-12T10:29:13.001Z,25.65
2023-05-12T10:30:12.939Z,25.99
2023-05-12T10:31:13.044Z,25.61
2023-05-12T10:32:12.930Z,25.47
2023-05-12T10:33:12.919Z,25.49
2023-05-12T10:34:12.923Z,25.57
2023-05-12T10:35:12.895Z,25.79
2023-05-12T10:36:12.916Z,25.53
2023-05-12T10:37:12.868Z,25.20
2023-05-12T10:38:12.962Z,24.76
2023-05-12T10:39:12.908Z,23.75
2023-05-12T10:40:12.876Z,23.92
2023-05-12T10:41:12.870Z,24.52
2023-05-12T10:42:12.882Z,24.75
2023-05-12T10:43:13.066Z,24.82
2023-05-12T10:44:12.865Z,24.79
2023-05-12T10:45:12.824Z,25.09
2023-05-12T10:46:12.878Z,25.09
2023-05-12T10:47:13.249Z,24.53
2023-05-12T10:48:13.852Z,24.38
2023-05-12T10:49:12.841Z,24.34
2023-05-12T10:50:12.808Z,24.17
2023-05-12T10:51:12.801Z,24.60
2023-05-12T10:52:12.848Z,24.59
2023-05-12T10:53:12.777Z,24.97
2023-05-12T10:54:12.790Z,25.06
2023-05-12T10:55:12.866Z,25.38
2023-05-12T10:56:13.012Z,25.44
2023-05-12T10:57:15.003Z,25.79
2023-05-12T10:58:15.096Z,26.02
2023-05-12T10:59:13.142Z,25.84
2023-05-12T11:00:13.102Z,25.62
2023-05-12T11:01:13.179Z,25.75
2023-05-12T11:02:13.639Z,25.74
2023-05-12T11:03:13.967Z,25.77
2023-05-12T11:04:13.172Z,25.15
2023-05-12T11:05:13.349Z,24.75
2023-05-12T11:06:14.114Z,24.29
2023-05-12T11:07:14.163Z,24.47
2023-05-12T11:08:14.272Z,24.75
2023-05-12T11:09:13.914Z,24.71
2023-05-12T11:11:13.168Z,24.79
2023-05-12T11:12:12.658Z,25.16
2023-05-12T11:13:12.642Z,25.43
2023-05-12T11:14:12.683Z,25.44
2023-05-12T11:15:12.722Z,25.72
2023-05-12T11:16:12.733Z,26.32
2023-05-12T11:17:12.682Z,26.54
2023-05-12T11:18:12.695Z,26.37
2023-05-12T11:19:12.863Z,25.57
2023-05-12T11:20:12.647Z,25.56
2023-05-12T11:21:12.619Z,26.47
2023-05-12T11:22:12.694Z,27.10
2023-05-12T11:23:12.577Z,27.53
2023-05-12T11:24:13.538Z,28.38
2023-05-12T11:25:12.693Z,27.64
2023-05-12T11:26:12.588Z,27.23
2023-05-12T11:27:12.570Z,27.09
2023-05-12T11:28:12.567Z,27.06
2023-05-12T11:29:12.546Z,28.44
2023-05-12T11:30:12.560Z,29.03
2023-05-12T11:31:12.630Z,29.49
2023-05-12T11:32:12.601Z,29.29
2023-05-12T11:33:12.570Z,28.23
2023-05-12T11:34:13.603Z,27.80
2023-05-12T11:35:13.513Z,27.66
2023-05-12T11:36:12.538Z,27.26
2023-05-12T11:37:12.495Z,27.10
2023-05-12T11:38:12.500Z,27.62
2023-05-12T11:39:12.475Z,28.22
2023-05-12T11:40:12.483Z,28.69
2023-05-12T11:41:12.501Z,28.23
2023-05-12T11:42:13.921Z,27.91
2023-05-12T11:43:13.517Z,27.39
2023-05-12T11:44:12.478Z,27.69
2023-05-12T11:45:12.474Z,27.96
2023-05-12T11:46:12.460Z,27.43
2023-05-12T11:47:12.441Z,27.26
2023-05-12T11:48:13.500Z,27.29
2023-05-12T11:49:13.441Z,27.10
2023-05-12T11:50:12.499Z,26.84
2023-05-12T11:51:12.430Z,26.54
2023-05-12T11:52:12.395Z,26.89
2023-05-12T11:53:13.123Z,27.36
2023-05-12T11:54:12.403Z,26.74
2023-05-12T11:55:12.383Z,26.59
2023-05-12T11:56:12.401Z,26.35
2023-05-12T11:57:12.400Z,26.32
2023-05-12T11:58:12.428Z,26.69
2023-05-12T11:59:12.413Z,27.01
2023-05-12T12:00:12.400Z,26.87
2023-05-12T12:01:12.368Z,26.87
2023-05-12T12:02:12.398Z,26.80
2023-05-12T12:03:12.450Z,26.50
2023-05-12T12:04:12.449Z,26.46
2023-05-12T12:05:12.340Z,26.52
2023-05-12T12:06:12.318Z,26.42
2023-05-12T12:07:12.337Z,26.22
2023-05-12T12:08:12.338Z,26.35
2023-05-12T12:09:12.345Z,26.35
2023-05-12T12:10:12.429Z,25.91
2023-05-12T12:11:12.425Z,25.74
2023-05-12T12:12:12.312Z,26.01
2023-05-12T12:13:12.317Z,26.35
2023-05-12T12:14:12.343Z,26.43
2023-05-12T12:15:12.295Z,26.69
2023-05-12T12:16:14.749Z,27.05
2023-05-12T12:17:13.288Z,27.28
2023-05-12T12:18:12.398Z,27.94
2023-05-12T12:19:12.361Z,28.50
2023-05-12T12:20:12.370Z,27.79
2023-05-12T12:21:12.260Z,27.29
2023-05-12T12:22:12.268Z,27.02
2023-05-12T12:23:12.236Z,26.24
2023-05-12T12:24:12.258Z,25.97
2023-05-12T12:25:12.222Z,26.02
2023-05-12T12:26:12.238Z,26.11
2023-05-12T12:27:12.207Z,25.93
2023-05-12T12:28:12.196Z,25.91
2023-05-12T12:29:12.199Z,25.24
2023-05-12T12:30:12.190Z,25.17
2023-05-12T12:31:12.233Z,25.10
2023-05-12T12:32:12.170Z,25.24
2023-05-12T12:33:12.239Z,24.95
2023-05-12T12:34:12.200Z,24.94
2023-05-12T12:35:12.187Z,25.07
2023-05-12T12:36:12.190Z,25.06
2023-05-12T12:37:12.145Z,26.01
2023-05-12T12:38:12.136Z,26.59
2023-05-12T12:39:12.161Z,27.70
2023-05-12T12:40:12.131Z,28.23
2023-05-12T12:41:12.147Z,28.03
2023-05-12T12:42:12.168Z,27.89
2023-05-12T12:43:12.109Z,28.68
2023-05-12T12:44:14.199Z,29.28
2023-05-12T12:45:12.109Z,29.72
2023-05-12T12:46:12.112Z,28.87
2023-05-12T12:47:12.222Z,28.16
2023-05-12T12:48:12.097Z,27.20
2023-05-12T12:49:12.074Z,26.80
2023-05-12T12:50:12.066Z,26.15
2023-05-12T12:51:12.104Z,25.59
2023-05-12T12:52:12.104Z,25.24
2023-05-12T12:53:12.077Z,25.24
2023-05-12T12:54:12.074Z,24.94
2023-05-12T12:55:12.048Z,24.97